Time;durP1;ratioP1;P1;durP2;ratioP2;P2;SDS_P1;SDS_P2;PMS_P1;PMS_P2;Temp;Humidity;BMP_temperature;BMP_pressure;BME280_temperature;BME280_humidity;BME280_pressure;Samples;Min_cycle;Max_cycle;Signal;HPM_P1;HPM_P2
2021/08/11 00:00:15;;;;;;;7.38;4.72;;;;;;;;;;5055378;28;20052;-75
2021/08/11 00:02:42;;;;;;;6.22;4.28;;;;;;;;;;5063651;28;20547;-77
2021/08/11 00:05:10;;;;;;;6.53;4.30;;;;;;;;;;5066539;28;20044;-75
2021/08/11 00:07:37;;;;;;;5.80;4.40;;;;;;;;;;5058767;28;20049;-75
2021/08/11 00:10:09;;;;;;;6.07;4.82;;;;;;;;;;5062352;28;20036;-75
2021/08/11 00:12:36;;;;;;;7.63;4.50;;;;;;;;;;5052307;28;20048;-75
2021/08/11 00:15:04;;;;;;;5.72;4.22;;;;;;;;;;5051524;28;20094;-76
2021/08/11 00:17:31;;;;;;;6.38;4.32;;;;;;;;;;5051646;28;20102;-76
2021/08/11 00:19:58;;;;;;;5.80;4.38;;;;;;;;;;5051799;28;20114;-76
2021/08/11 00:22:24;;;;;;;6.20;3.95;;;;;;;;;;5052487;28;20413;-76
2021/08/11 00:24:51;;;;;;;5.93;4.30;;;;;;;;;;5051610;28;20126;-76
2021/08/11 00:27:19;;;;;;;6.82;4.53;;;;;;;;;;5052050;28;20053;-76
2021/08/11 00:29:46;;;;;;;6.40;4.07;;;;;;;;;;5052054;28;20091;-76
2021/08/11 00:32:13;;;;;;;5.78;4.03;;;;;;;;;;5051706;28;20623;-76
2021/08/11 00:34:41;;;;;;;7.68;4.68;;;;;;;;;;5051342;28;20468;-77
2021/08/11 00:37:07;;;;;;;5.97;3.92;;;;;;;;;;5052128;28;20049;-76
2021/08/11 00:39:34;;;;;;;7.82;4.38;;;;;;;;;;5052173;28;20044;-77
2021/08/11 00:42:01;;;;;;;6.53;4.82;;;;;;;;;;5051449;28;20122;-77
2021/08/11 00:44:29;;;;;;;7.22;4.88;;;;;;;;;;5051966;28;20045;-77
2021/08/11 00:46:56;;;;;;;6.10;4.40;;;;;;;;;;5050959;28;20052;-76
2021/08/11 00:49:22;;;;;;;6.97;4.90;;;;;;;;;;5051588;28;20098;-76
2021/08/11 00:51:50;;;;;;;8.07;4.85;;;;;;;;;;5051692;28;20045;-76
2021/08/11 00:54:17;;;;;;;6.15;4.57;;;;;;;;;;5051722;28;20578;-76
2021/08/11 00:56:46;;;;;;;6.93;4.78;;;;;;;;;;5054383;28;20052;-76
2021/08/11 00:59:17;;;;;;;5.47;4.07;;;;;;;;;;5064238;28;20053;-76
2021/08/11 01:01:46;;;;;;;;;;;;;;;;;;5055724;28;20053;-76
2021/08/11 01:04:16;;;;;;;6.30;4.53;;;;;;;;;;5052136;28;19975;-76
2021/08/11 01:06:44;;;;;;;7.22;4.60;;;;;;;;;;5050806;28;20098;-76
2021/08/11 01:09:13;;;;;;;5.88;4.70;;;;;;;;;;5051569;28;20048;-76
2021/08/11 01:11:43;;;;;;;6.28;5.25;;;;;;;;;;5051317;28;20568;-76
2021/08/11 01:14:10;;;;;;;6.40;5.38;;;;;;;;;;5051499;28;20048;-76
2021/08/11 01:16:37;;;;;;;6.70;4.63;;;;;;;;;;5050651;28;20053;-76
2021/08/11 01:19:05;;;;;;;7.15;4.60;;;;;;;;;;5051624;28;20099;-76
2021/08/11 01:21:39;;;;;;;5.72;4.43;;;;;;;;;;5051343;28;20056;-76
2021/08/11 01:24:15;;;;;;;6.90;4.55;;;;;;;;;;5051573;28;20456;-76
2021/08/11 01:27:07;;;;;;;6.00;4.70;;;;;;;;;;5050670;28;20052;-76
2021/08/11 01:30:02;;;;;;;6.05;4.15;;;;;;;;;;5055083;28;20494;-77
2021/08/11 01:32:42;;;;;;;5.75;4.20;;;;;;;;;;5057243;28;20040;-76
2021/08/11 01:35:13;;;;;;;7.93;4.82;;;;;;;;;;5060320;28;20076;-78
2021/08/11 01:37:42;;;;;;;7.32;5.05;;;;;;;;;;5066390;28;20113;-76
2021/08/11 01:40:11;;;;;;;6.45;4.55;;;;;;;;;;5053908;28;20052;-77
2021/08/11 01:42:41;;;;;;;8.45;4.25;;;;;;;;;;5053364;28;20056;-77
2021/08/11 01:45:13;;;;;;;7.63;4.47;;;;;;;;;;5056439;28;20056;-77
2021/08/11 01:47:44;;;;;;;6.00;4.60;;;;;;;;;;5054418;28;20049;-77
2021/08/11 01:50:15;;;;;;;7.22;5.22;;;;;;;;;;5052690;28;20045;-77
2021/08/11 01:52:44;;;;;;;6.15;5.22;;;;;;;;;;5054299;28;20103;-77
2021/08/11 01:55:12;;;;;;;8.65;6.30;;;;;;;;;;5056179;28;20091;-76
2021/08/11 01:57:40;;;;;;;7.18;5.72;;;;;;;;;;5056283;28;20116;-77
2021/08/11 02:00:09;;;;;;;8.63;6.18;;;;;;;;;;5056254;28;20048;-77
2021/08/11 02:02:38;;;;;;;8.23;5.50;;;;;;;;;;5055979;28;20387;-77
2021/08/11 02:05:06;;;;;;;7.18;5.20;;;;;;;;;;5055720;28;20045;-77
2021/08/11 02:07:35;;;;;;;6.70;5.78;;;;;;;;;;5057660;28;20102;-77
2021/08/11 02:10:02;;;;;;;7.22;5.32;;;;;;;;;;5057334;28;20071;-77
2021/08/11 02:12:30;;;;;;;7.63;5.28;;;;;;;;;;5058834;28;20071;-76
2021/08/11 02:14:57;;;;;;;7.57;4.93;;;;;;;;;;5054745;28;20130;-76
2021/08/11 02:17:24;;;;;;;6.85;4.72;;;;;;;;;;5081988;22;20048;-78
2021/08/11 02:19:51;;;;;;;5.82;5.13;;;;;;;;;;5097881;28;20112;-79
2021/08/11 02:22:18;;;;;;;7.38;5.70;;;;;;;;;;5097358;28;20093;-81
2021/08/11 02:24:49;;;;;;;9.20;5.20;;;;;;;;;;5098102;28;20070;-81
2021/08/11 02:27:19;;;;;;;6.80;5.30;;;;;;;;;;5098323;28;20076;-81
2021/08/11 02:29:50;;;;;;;6.78;5.30;;;;;;;;;;5097193;28;20524;-82
2021/08/11 02:32:24;;;;;;;6.82;5.80;;;;;;;;;;5097186;28;20055;-82
2021/08/11 02:35:00;;;;;;;7.00;5.28;;;;;;;;;;5097523;28;20052;-82
2021/08/11 02:37:32;;;;;;;6.90;4.82;;;;;;;;;;5098167;28;20052;-81
2021/08/11 02:40:06;;;;;;;6.00;5.40;;;;;;;;;;5098584;28;20048;-80
2021/08/11 02:42:42;;;;;;;6.57;5.10;;;;;;;;;;5097464;28;20435;-80
2021/08/11 02:45:13;;;;;;;7.85;6.20;;;;;;;;;;5097574;28;20139;-80
2021/08/11 02:47:41;;;;;;;7.68;5.60;;;;;;;;;;5098694;28;20063;-80
2021/08/11 02:50:10;;;;;;;7.55;5.53;;;;;;;;;;5098846;28;20040;-79
2021/08/11 02:52:39;;;;;;;7.85;5.78;;;;;;;;;;5099572;28;20418;-80
2021/08/11 02:55:09;;;;;;;7.07;5.22;;;;;;;;;;5098971;28;20093;-80
2021/08/11 02:57:36;;;;;;;6.38;5.10;;;;;;;;;;5099515;28;20074;-81
2021/08/11 03:00:05;;;;;;;6.63;5.38;;;;;;;;;;5099789;28;20070;-80
2021/08/11 03:02:32;;;;;;;7.20;5.63;;;;;;;;;;5098524;28;20455;-80
2021/08/11 03:05:00;;;;;;;8.20;5.72;;;;;;;;;;5096653;28;20048;-81
2021/08/11 03:07:28;;;;;;;6.47;5.03;;;;;;;;;;5096647;28;20109;-79
2021/08/11 03:09:55;;;;;;;8.93;5.45;;;;;;;;;;5096415;28;20047;-81
2021/08/11 03:12:24;;;;;;;7.90;5.70;;;;;;;;;;5096668;28;20055;-80
2021/08/11 03:14:51;;;;;;;8.07;6.28;;;;;;;;;;5096396;28;20492;-82
2021/08/11 03:17:18;;;;;;;6.95;5.47;;;;;;;;;;5096872;28;20040;-80
2021/08/11 03:19:45;;;;;;;6.63;5.57;;;;;;;;;;5097609;28;20048;-82
2021/08/11 03:22:12;;;;;;;7.55;5.78;;;;;;;;;;5098664;28;20131;-80
2021/08/11 03:24:40;;;;;;;7.57;6.00;;;;;;;;;;5107838;28;20047;-79
2021/08/11 03:27:06;;;;;;;8.35;5.80;;;;;;;;;;5106180;28;20079;-80
2021/08/11 03:29:35;;;;;;;6.63;5.40;;;;;;;;;;5097178;28;20052;-79
2021/08/11 03:32:02;;;;;;;6.82;5.63;;;;;;;;;;5096879;28;20638;-79
2021/08/11 03:34:29;;;;;;;7.47;5.72;;;;;;;;;;5096554;28;20093;-79
2021/08/11 03:36:56;;;;;;;7.53;6.05;;;;;;;;;;5095571;28;20126;-79
2021/08/11 03:39:23;;;;;;;7.28;5.30;;;;;;;;;;5097246;28;20076;-79
2021/08/11 03:41:50;;;;;;;7.10;5.38;;;;;;;;;;5096781;28;20049;-79
2021/08/11 03:44:17;;;;;;;7.38;4.95;;;;;;;;;;5097360;28;20059;-79
2021/08/11 03:46:45;;;;;;;7.45;5.50;;;;;;;;;;5095340;28;20073;-79
2021/08/11 03:49:12;;;;;;;7.70;5.85;;;;;;;;;;5094506;28;20051;-80
2021/08/11 03:51:39;;;;;;;6.57;5.03;;;;;;;;;;5096361;28;20043;-78
2021/08/11 03:54:06;;;;;;;7.40;5.82;;;;;;;;;;5094876;28;20047;-80
2021/08/11 03:56:32;;;;;;;6.85;5.82;;;;;;;;;;5096310;28;20048;-80
2021/08/11 03:58:59;;;;;;;6.78;4.97;;;;;;;;;;5096915;28;20051;-81
2021/08/11 04:01:26;;;;;;;7.38;5.85;;;;;;;;;;5096731;28;20051;-80
2021/08/11 04:03:54;;;;;;;6.13;4.80;;;;;;;;;;5097223;28;20610;-81
2021/08/11 04:06:21;;;;;;;6.10;4.35;;;;;;;;;;5096369;28;20497;-81
2021/08/11 04:08:48;;;;;;;6.20;4.60;;;;;;;;;;5096711;28;20108;-81
2021/08/11 04:11:15;;;;;;;6.25;5.00;;;;;;;;;;5097190;28;20048;-81
2021/08/11 04:13:41;;;;;;;6.15;4.80;;;;;;;;;;5096008;28;20052;-80
2021/08/11 04:16:08;;;;;;;6.30;4.80;;;;;;;;;;5094710;28;20093;-82
2021/08/11 04:18:35;;;;;;;5.03;3.97;;;;;;;;;;5095323;28;20070;-81
2021/08/11 04:21:05;;;;;;;5.88;4.43;;;;;;;;;;5095858;28;20044;-80
2021/08/11 04:23:32;;;;;;;6.22;4.18;;;;;;;;;;5095266;28;20411;-82
2021/08/11 04:25:59;;;;;;;7.18;4.10;;;;;;;;;;5094150;28;20044;-82
2021/08/11 04:28:26;;;;;;;8.02;4.18;;;;;;;;;;5096299;28;20056;-82
2021/08/11 04:30:53;;;;;;;7.20;4.18;;;;;;;;;;5095204;28;20048;-82
2021/08/11 04:33:19;;;;;;;7.38;4.18;;;;;;;;;;5094542;28;20044;-82
2021/08/11 04:35:46;;;;;;;6.45;3.88;;;;;;;;;;5095202;28;20040;-81
2021/08/11 04:38:16;;;;;;;9.80;4.50;;;;;;;;;;5098566;28;20101;-80
2021/08/11 04:40:43;;;;;;;6.65;4.03;;;;;;;;;;5098770;28;20443;-81
2021/08/11 04:43:10;;;;;;;6.90;4.00;;;;;;;;;;5098509;28;20122;-81
2021/08/11 04:45:37;;;;;;;7.75;4.30;;;;;;;;;;5095070;28;20493;-79
2021/08/11 04:48:05;;;;;;;6.88;4.60;;;;;;;;;;5095787;28;20044;-79
2021/08/11 04:50:31;;;;;;;6.72;5.10;;;;;;;;;;5095980;28;20040;-80
2021/08/11 04:52:58;;;;;;;6.00;4.63;;;;;;;;;;5095386;28;20071;-78
2021/08/11 04:55:27;;;;;;;7.40;4.75;;;;;;;;;;5094448;28;20040;-80
2021/08/11 04:57:54;;;;;;;6.25;4.68;;;;;;;;;;5095131;28;20052;-80
2021/08/11 05:00:20;;;;;;;8.10;5.22;;;;;;;;;;5098195;28;20447;-81
2021/08/11 05:02:47;;;;;;;7.05;4.45;;;;;;;;;;5098927;28;20055;-80
2021/08/11 05:05:14;;;;;;;6.75;4.68;;;;;;;;;;5097868;28;20044;-79
2021/08/11 05:07:41;;;;;;;8.02;5.03;;;;;;;;;;5097964;28;20048;-79
2021/08/11 05:10:10;;;;;;;6.47;4.50;;;;;;;;;;5096469;28;20056;-81
2021/08/11 05:12:38;;;;;;;6.65;4.70;;;;;;;;;;5095549;28;20070;-81
2021/08/11 05:15:06;;;;;;;7.40;5.35;;;;;;;;;;5096287;28;20447;-79
2021/08/11 05:17:33;;;;;;;7.78;4.95;;;;;;;;;;5095975;28;20086;-79
2021/08/11 05:20:00;;;;;;;7.82;5.18;;;;;;;;;;5095097;28;20134;-81
2021/08/11 05:22:27;;;;;;;6.72;4.80;;;;;;;;;;5094940;28;20459;-81
2021/08/11 05:24:54;;;;;;;8.32;5.13;;;;;;;;;;5093870;28;20059;-81
2021/08/11 05:27:21;;;;;;;7.88;5.47;;;;;;;;;;5096966;28;20044;-82
2021/08/11 05:29:49;;;;;;;8.68;5.55;;;;;;;;;;5099926;28;20090;-80
2021/08/11 05:32:16;;;;;;;8.38;5.10;;;;;;;;;;5099436;28;20054;-82
2021/08/11 05:34:44;;;;;;;8.52;4.57;;;;;;;;;;5098107;28;20044;-81
2021/08/11 05:37:12;;;;;;;9.50;5.65;;;;;;;;;;5100770;28;20070;-81
2021/08/11 05:39:39;;;;;;;7.68;5.50;;;;;;;;;;5101284;28;20102;-81
2021/08/11 05:42:07;;;;;;;8.25;5.47;;;;;;;;;;5100244;28;20052;-81
2021/08/11 05:44:34;;;;;;;9.20;5.88;;;;;;;;;;5099967;28;20078;-80
2021/08/11 05:47:04;;;;;;;7.00;5.20;;;;;;;;;;5098372;28;20089;-81
2021/08/11 05:49:31;;;;;;;7.30;5.25;;;;;;;;;;5100339;28;20047;-83
2021/08/11 05:51:58;;;;;;;7.40;5.43;;;;;;;;;;5098226;28;20111;-82
2021/08/11 05:54:25;;;;;;;8.18;5.20;;;;;;;;;;5098484;28;20044;-80
2021/08/11 05:56:52;;;;;;;7.63;5.10;;;;;;;;;;5099209;28;20116;-81
2021/08/11 05:59:19;;;;;;;8.90;5.00;;;;;;;;;;5099208;28;20056;-81
2021/08/11 06:01:46;;;;;;;9.27;5.63;;;;;;;;;;5099419;28;20545;-81
2021/08/11 06:04:14;;;;;;;8.68;4.90;;;;;;;;;;5100741;28;20073;-79
2021/08/11 06:06:41;;;;;;;8.48;5.35;;;;;;;;;;5098784;28;20047;-81
2021/08/11 06:09:07;;;;;;;7.97;4.72;;;;;;;;;;5098896;28;20040;-80
2021/08/11 06:11:34;;;;;;;7.65;4.28;;;;;;;;;;5097644;28;20048;-81
2021/08/11 06:14:01;;;;;;;4.97;3.20;;;;;;;;;;5097566;28;20412;-82
2021/08/11 06:16:28;;;;;;;7.93;3.97;;;;;;;;;;5096764;28;20487;-80
2021/08/11 06:18:56;;;;;;;7.25;4.32;;;;;;;;;;5098405;28;20485;-82
2021/08/11 06:21:26;;;;;;;9.15;4.50;;;;;;;;;;5097393;28;20055;-81
2021/08/11 06:23:53;;;;;;;5.90;3.90;;;;;;;;;;5097288;28;20500;-81
2021/08/11 06:26:20;;;;;;;8.85;4.18;;;;;;;;;;5097033;28;20047;-82
2021/08/11 06:28:47;;;;;;;7.13;4.03;;;;;;;;;;5101810;28;20052;-80
2021/08/11 06:31:17;;;;;;;8.07;3.90;;;;;;;;;;5102343;28;20048;-80
2021/08/11 06:33:44;;;;;;;6.10;4.10;;;;;;;;;;5101704;28;20044;-79
2021/08/11 06:36:11;;;;;;;6.13;4.03;;;;;;;;;;5100314;28;20106;-80
2021/08/11 06:38:39;;;;;;;5.82;3.65;;;;;;;;;;5099044;28;20052;-80
2021/08/11 06:41:06;;;;;;;5.90;4.00;;;;;;;;;;5099822;28;20077;-79
2021/08/11 06:43:33;;;;;;;8.38;4.10;;;;;;;;;;5099724;28;20109;-80
2021/08/11 06:45:59;;;;;;;6.50;3.17;;;;;;;;;;5098019;28;20056;-80
2021/08/11 06:48:26;;;;;;;6.53;3.63;;;;;;;;;;5098727;28;20044;-79
2021/08/11 06:50:55;;;;;;;5.80;4.03;;;;;;;;;;5101701;28;20047;-81
2021/08/11 06:53:21;;;;;;;5.28;3.53;;;;;;;;;;5101184;28;20044;-82
2021/08/11 06:56:13;;;;;;;5.57;3.17;;;;;;;;;;5098186;28;20105;-82
2021/08/11 06:58:40;;;;;;;4.10;2.80;;;;;;;;;;5099757;28;20067;-79
2021/08/11 08:37:29;;;;;;;5.32;2.45;;;;;;;;;;4771368;29;20061;-82
2021/08/11 08:40:06;;;;;;;;;;;;;;;;;;4856487;29;20574;-80
2021/08/11 08:42:40;;;;;;;4.70;2.70;;;;;;;;;;4852406;29;20368;-80
2021/08/11 08:45:22;;;;;;;5.00;2.85;;;;;;;;;;4931387;28;20059;-80
2021/08/11 08:47:50;;;;;;;5.13;2.58;;;;;;;;;;4962614;28;20050;-81
2021/08/11 08:50:19;;;;;;;4.72;2.72;;;;;;;;;;4997989;28;20050;-83
2021/08/11 08:52:48;;;;;;;4.78;2.55;;;;;;;;;;5074944;28;20044;-80
2021/08/11 08:55:16;;;;;;;3.60;2.35;;;;;;;;;;5075689;28;20045;-81
2021/08/11 08:57:43;;;;;;;4.88;2.55;;;;;;;;;;5073826;28;20056;-80
2021/08/11 09:00:11;;;;;;;5.88;2.85;;;;;;;;;;5071447;28;20106;-79
2021/08/11 09:02:39;;;;;;;4.82;2.50;;;;;;;;;;5070405;28;20086;-79
2021/08/11 09:05:06;;;;;;;4.80;2.75;;;;;;;;;;5070377;28;20037;-79
2021/08/11 09:07:33;;;;;;;5.38;2.83;;;;;;;;;;5070661;28;20044;-78
2021/08/11 09:10:12;;;;;;;4.30;2.35;;;;;;;;;;5070570;28;20132;-79
2021/08/11 09:12:45;;;;;;;5.33;2.93;;;;;;;;;;5082549;28;20036;-79
2021/08/11 09:15:26;;;;;;;5.35;2.47;;;;;;;;;;5092900;28;20055;-80
2021/08/11 09:17:53;;;;;;;4.65;2.60;;;;;;;;;;5096063;28;20055;-80
2021/08/11 09:20:24;;;;;;;4.65;2.70;;;;;;;;;;5095315;28;20056;-79
2021/08/11 09:22:52;;;;;;;4.80;2.78;;;;;;;;;;5094157;28;20044;-81
2021/08/11 09:25:20;;;;;;;4.80;2.72;;;;;;;;;;5090733;28;20420;-77
2021/08/11 09:27:49;;;;;;;6.25;3.13;;;;;;;;;;5090916;28;20052;-77
2021/08/11 09:30:18;;;;;;;4.60;2.70;;;;;;;;;;5091025;28;20074;-77
2021/08/11 09:33:03;;;;;;;5.13;2.65;;;;;;;;;;5089919;28;20044;-78
2021/08/11 09:35:31;;;;;;;5.38;2.40;;;;;;;;;;5090636;28;20044;-79
2021/08/11 09:37:59;;;;;;;4.82;3.00;;;;;;;;;;5090791;28;20045;-78
2021/08/11 09:40:29;;;;;;;5.07;3.20;;;;;;;;;;5091362;28;20130;-78
2021/08/11 09:42:58;;;;;;;7.05;3.20;;;;;;;;;;5089945;28;20055;-77
2021/08/11 09:45:25;;;;;;;5.32;2.63;;;;;;;;;;5089831;28;20524;-78
2021/08/11 09:48:03;;;;;;;4.95;3.00;;;;;;;;;;5091128;28;20055;-77
2021/08/11 09:50:55;;;;;;;5.78;2.90;;;;;;;;;;5090765;28;20055;-77
2021/08/11 09:53:37;;;;;;;5.38;3.03;;;;;;;;;;5087042;28;20071;-77
2021/08/11 09:56:07;;;;;;;4.82;2.58;;;;;;;;;;5089411;28;20044;-78
2021/08/11 09:58:37;;;;;;;5.22;2.60;;;;;;;;;;5090306;28;20054;-78
2021/08/11 10:01:05;;;;;;;4.57;3.08;;;;;;;;;;5089918;28;20105;-78
2021/08/11 10:03:33;;;;;;;4.78;3.05;;;;;;;;;;5090201;28;20063;-78
2021/08/11 10:06:00;;;;;;;5.40;3.22;;;;;;;;;;5089929;28;20410;-78
2021/08/11 10:08:28;;;;;;;4.97;3.03;;;;;;;;;;5090066;28;20109;-79
2021/08/11 10:10:55;;;;;;;5.55;3.47;;;;;;;;;;5091132;28;20079;-77
2021/08/11 10:13:24;;;;;;;5.00;3.08;;;;;;;;;;5091944;28;20052;-78
2021/08/11 10:15:52;;;;;;;4.97;3.20;;;;;;;;;;5092694;28;20048;-78
2021/08/11 10:18:23;;;;;;;5.72;3.78;;;;;;;;;;5092856;28;20101;-77
2021/08/11 10:20:52;;;;;;;4.75;3.30;;;;;;;;;;5093377;28;20127;-78
2021/08/11 10:23:20;;;;;;;6.97;3.83;;;;;;;;;;5093491;28;20075;-78
2021/08/11 10:25:48;;;;;;;5.90;3.50;;;;;;;;;;5094632;28;20059;-78
2021/08/11 10:28:19;;;;;;;5.63;3.58;;;;;;;;;;5093211;28;20047;-78
2021/08/11 10:30:47;;;;;;;4.85;3.53;;;;;;;;;;5098447;28;20466;-80
2021/08/11 10:33:16;;;;;;;5.68;3.65;;;;;;;;;;5097365;28;20044;-80
2021/08/11 10:35:44;;;;;;;6.00;4.03;;;;;;;;;;5103149;28;20044;-85
2021/08/11 10:38:12;;;;;;;5.97;3.50;;;;;;;;;;5103406;28;20040;-82
2021/08/11 10:40:41;;;;;;;5.97;4.00;;;;;;;;;;5101499;28;20061;-83
2021/08/11 10:43:10;;;;;;;5.07;3.38;;;;;;;;;;5101332;28;20067;-81
2021/08/11 10:45:38;;;;;;;6.53;3.80;;;;;;;;;;5097472;28;20104;-78
2021/08/11 10:48:17;;;;;;;5.68;3.88;;;;;;;;;;5096827;28;20048;-80
2021/08/11 10:50:47;;;;;;;5.75;4.10;;;;;;;;;;5096462;28;20135;-79
2021/08/11 10:53:14;;;;;;;6.38;4.00;;;;;;;;;;5096718;28;20043;-80
2021/08/11 10:55:47;;;;;;;5.47;3.85;;;;;;;;;;5095981;28;20048;-82
2021/08/11 10:58:39;;;;;;;6.00;4.13;;;;;;;;;;5095709;28;20048;-79
2021/08/11 11:01:29;;;;;;;6.65;4.03;;;;;;;;;;5096565;28;20052;-84
2021/08/11 11:03:57;;;;;;;4.85;3.97;;;;;;;;;;5097528;28;20470;-82
2021/08/11 11:06:24;;;;;;;5.07;4.28;;;;;;;;;;5097378;28;20051;-82
2021/08/11 11:08:52;;;;;;;6.32;4.40;;;;;;;;;;5097190;28;20040;-81
2021/08/11 11:11:41;;;;;;;6.25;4.30;;;;;;;;;;5095704;28;20075;-80
2021/08/11 11:14:52;;;;;;;5.50;4.00;;;;;;;;;;5074387;28;20063;-79
2021/08/11 11:17:19;;;;;;;5.53;4.00;;;;;;;;;;5073878;28;20052;-78
2021/08/11 11:20:28;;;;;;;5.40;4.10;;;;;;;;;;5074821;28;20044;-79
2021/08/11 11:26:32;;;;;;;6.72;4.05;;;;;;;;;;5091141;28;20046;-79
2021/08/11 11:29:11;;;;;;;6.60;3.90;;;;;;;;;;5093840;28;20093;-78
2021/08/11 11:35:16;;;;;;;5.72;4.07;;;;;;;;;;5092878;28;20039;-79
2021/08/11 11:37:43;;;;;;;5.88;4.00;;;;;;;;;;5096930;28;20071;-81
2021/08/11 11:40:17;;;;;;;5.13;4.03;;;;;;;;;;5098049;28;20048;-81
2021/08/11 11:42:46;;;;;;;6.88;4.30;;;;;;;;;;5096184;28;20075;-80
2021/08/11 11:45:16;;;;;;;5.55;4.47;;;;;;;;;;5096167;28;20060;-81
2021/08/11 11:48:03;;;;;;;6.50;4.55;;;;;;;;;;5097473;28;20136;-79
2021/08/11 11:50:32;;;;;;;6.70;4.97;;;;;;;;;;5096123;28;20040;-80
2021/08/11 11:53:00;;;;;;;6.35;4.47;;;;;;;;;;5096297;28;20536;-80
2021/08/11 11:55:28;;;;;;;6.43;4.35;;;;;;;;;;5096300;28;20497;-79
2021/08/11 11:57:58;;;;;;;6.65;5.75;;;;;;;;;;5096462;28;20040;-80
2021/08/11 12:00:25;;;;;;;5.60;4.90;;;;;;;;;;5097717;28;20051;-80
2021/08/11 12:02:52;;;;;;;8.68;5.20;;;;;;;;;;5100928;28;20074;-81
2021/08/11 12:05:20;;;;;;;5.80;4.82;;;;;;;;;;5100971;28;20052;-82
2021/08/11 12:07:47;;;;;;;6.57;5.07;;;;;;;;;;5102819;28;20073;-82
2021/08/11 12:10:23;;;;;;;6.25;4.85;;;;;;;;;;5106729;28;20374;-81
2021/08/11 12:13:00;;;;;;;6.05;4.93;;;;;;;;;;5101354;28;20075;-82
2021/08/11 12:15:28;;;;;;;8.15;5.00;;;;;;;;;;5089221;28;20045;-80
2021/08/11 12:17:57;;;;;;;6.28;4.65;;;;;;;;;;5090384;28;20117;-81
2021/08/11 12:20:32;;;;;;;7.28;5.40;;;;;;;;;;5089674;28;20044;-81
2021/08/11 12:23:01;;;;;;;7.50;5.28;;;;;;;;;;5089554;28;20045;-83
2021/08/11 12:25:30;;;;;;;5.78;4.65;;;;;;;;;;5089333;28;20053;-83
2021/08/11 12:28:10;;;;;;;5.60;5.00;;;;;;;;;;5087605;28;20067;-83
2021/08/11 12:30:40;;;;;;;7.13;4.78;;;;;;;;;;5084630;28;20052;-80
2021/08/11 12:33:07;;;;;;;6.50;4.80;;;;;;;;;;5089268;28;20121;-82
2021/08/11 12:35:39;;;;;;;9.18;5.13;;;;;;;;;;5083330;28;20048;-81
2021/08/11 12:38:06;;;;;;;6.28;4.85;;;;;;;;;;5092896;28;20039;-81
2021/08/11 12:40:35;;;;;;;5.60;4.72;;;;;;;;;;5095973;28;20040;-83
2021/08/11 12:46:49;;;;;;;6.38;5.10;;;;;;;;;;5084350;28;20039;-80
2021/08/11 12:49:18;;;;;;;7.35;4.95;;;;;;;;;;5098203;28;20070;-82
2021/08/11 12:51:46;;;;;;;6.18;4.90;;;;;;;;;;5099271;28;20040;-81
2021/08/11 12:54:13;;;;;;;6.70;4.80;;;;;;;;;;5097080;28;20047;-80
2021/08/11 12:56:57;;;;;;;8.45;5.28;;;;;;;;;;5095228;28;20048;-79
2021/08/11 12:59:24;;;;;;;6.68;5.18;;;;;;;;;;5093733;28;20501;-78
2021/08/11 13:01:52;;;;;;;7.07;4.78;;;;;;;;;;5094041;28;20054;-78
2021/08/11 13:04:24;;;;;;;6.78;4.55;;;;;;;;;;5092485;28;20052;-77
2021/08/11 13:06:52;;;;;;;6.88;5.10;;;;;;;;;;5090971;28;20047;-77
2021/08/11 13:09:21;;;;;;;6.32;4.95;;;;;;;;;;5094067;28;20048;-80
2021/08/11 13:11:53;;;;;;;9.85;5.20;;;;;;;;;;5093268;28;20098;-78
2021/08/11 13:14:49;;;;;;;7.80;4.90;;;;;;;;;;5094283;28;20048;-80
2021/08/11 13:17:20;;;;;;;8.10;5.32;;;;;;;;;;5093042;28;20044;-80
2021/08/11 13:19:48;;;;;;;8.35;5.25;;;;;;;;;;5094259;28;20045;-81
2021/08/11 13:22:23;;;;;;;5.93;5.32;;;;;;;;;;5092926;28;20603;-80
2021/08/11 13:24:51;;;;;;;6.40;5.45;;;;;;;;;;5092731;28;20075;-81
2021/08/11 13:27:18;;;;;;;7.18;4.72;;;;;;;;;;5092851;28;20087;-81
2021/08/11 13:29:45;;;;;;;5.68;4.70;;;;;;;;;;5093957;28;20048;-82
2021/08/11 13:32:14;;;;;;;6.88;5.13;;;;;;;;;;5093159;28;20100;-81
2021/08/11 13:34:42;;;;;;;5.40;4.43;;;;;;;;;;5093524;28;20056;-81
2021/08/11 13:37:09;;;;;;;6.07;4.85;;;;;;;;;;5094492;28;20059;-82
2021/08/11 13:39:36;;;;;;;6.45;4.65;;;;;;;;;;5095324;28;20082;-82
2021/08/11 13:42:04;;;;;;;7.13;5.05;;;;;;;;;;5095409;28;20048;-80
2021/08/11 13:44:34;;;;;;;7.30;4.53;;;;;;;;;;5097190;28;20052;-81
2021/08/11 13:47:01;;;;;;;6.90;4.57;;;;;;;;;;5095797;28;20413;-80
2021/08/11 13:49:31;;;;;;;6.72;4.30;;;;;;;;;;5098295;28;20048;-79
2021/08/11 13:51:59;;;;;;;;;;;;;;;;;;5099057;28;20048;-80
2021/08/11 13:54:27;;;;;;;6.72;4.80;;;;;;;;;;5098284;28;19943;-82
2021/08/11 13:56:54;;;;;;;6.18;4.50;;;;;;;;;;5096650;28;20036;-81
2021/08/11 13:59:21;;;;;;;7.93;5.38;;;;;;;;;;5099407;28;20047;-81
2021/08/11 14:01:48;;;;;;;5.15;4.47;;;;;;;;;;5099323;28;20139;-81
2021/08/11 14:04:15;;;;;;;7.13;5.07;;;;;;;;;;5100219;28;20044;-82
2021/08/11 14:06:42;;;;;;;6.45;4.68;;;;;;;;;;5097554;28;20055;-82
2021/08/11 14:09:11;;;;;;;6.07;4.57;;;;;;;;;;5098539;28;20051;-81
2021/08/11 14:11:40;;;;;;;6.68;5.10;;;;;;;;;;5102483;28;20507;-81
2021/08/11 14:14:08;;;;;;;5.05;4.30;;;;;;;;;;5098371;28;20056;-81
2021/08/11 14:16:34;;;;;;;5.45;4.50;;;;;;;;;;5097388;28;20100;-81
2021/08/11 14:19:04;;;;;;;6.10;4.82;;;;;;;;;;5098008;28;20075;-81
2021/08/11 14:21:32;;;;;;;5.93;4.75;;;;;;;;;;5097432;28;20059;-81
2021/08/11 14:24:00;;;;;;;6.97;5.00;;;;;;;;;;5096598;28;20140;-81
2021/08/11 14:26:28;;;;;;;5.95;4.65;;;;;;;;;;5097145;28;20052;-81
2021/08/11 14:28:55;;;;;;;5.45;4.60;;;;;;;;;;5098476;28;20054;-80
2021/08/11 14:31:27;;;;;;;7.75;5.00;;;;;;;;;;5098569;28;20044;-81
2021/08/11 14:33:57;;;;;;;5.60;4.43;;;;;;;;;;5097294;28;20047;-80
2021/08/11 14:36:24;;;;;;;6.72;4.65;;;;;;;;;;5097286;28;20047;-81
2021/08/11 14:38:51;;;;;;;5.55;4.75;;;;;;;;;;5097596;28;20484;-81
2021/08/11 14:41:19;;;;;;;6.60;5.40;;;;;;;;;;5097342;28;20048;-81
2021/08/11 14:43:49;;;;;;;5.78;4.78;;;;;;;;;;5098975;28;20463;-81
2021/08/11 14:46:16;;;;;;;5.40;4.50;;;;;;;;;;5097785;28;20048;-80
2021/08/11 14:48:45;;;;;;;7.50;4.70;;;;;;;;;;5102163;28;20052;-80
2021/08/11 14:51:12;;;;;;;5.72;4.75;;;;;;;;;;5100332;28;20048;-80
2021/08/11 14:53:39;;;;;;;5.60;4.63;;;;;;;;;;5100965;28;20048;-81
2021/08/11 14:56:08;;;;;;;7.47;4.53;;;;;;;;;;5100753;28;20040;-82
2021/08/11 14:58:35;;;;;;;5.95;4.72;;;;;;;;;;5101133;28;20790;-82
2021/08/11 15:01:03;;;;;;;6.95;4.78;;;;;;;;;;5097716;28;20048;-79
2021/08/11 15:03:32;;;;;;;5.80;5.20;;;;;;;;;;5098845;28;20084;-81
2021/08/11 15:06:00;;;;;;;5.43;4.22;;;;;;;;;;5098101;28;20509;-80
2021/08/11 15:08:27;;;;;;;5.75;4.88;;;;;;;;;;5101002;28;20051;-80
2021/08/11 15:10:54;;;;;;;7.80;5.07;;;;;;;;;;5098190;28;20442;-81
2021/08/11 15:13:21;;;;;;;5.53;4.50;;;;;;;;;;5094420;28;20425;-81
2021/08/11 15:15:48;;;;;;;6.00;4.65;;;;;;;;;;5096972;28;20052;-81
2021/08/11 15:18:16;;;;;;;8.88;4.82;;;;;;;;;;5096309;28;20044;-80
2021/08/11 15:20:43;;;;;;;5.13;4.60;;;;;;;;;;5095713;28;20054;-81
2021/08/11 15:23:12;;;;;;;7.25;5.10;;;;;;;;;;5094676;28;20044;-82
2021/08/11 15:25:39;;;;;;;6.80;5.50;;;;;;;;;;5095486;28;20060;-82
2021/08/11 15:28:06;;;;;;;7.88;5.00;;;;;;;;;;5096198;28;20055;-80
2021/08/11 15:30:33;;;;;;;6.20;4.85;;;;;;;;;;5095342;28;20044;-82
2021/08/11 15:33:00;;;;;;;5.90;4.43;;;;;;;;;;5097236;28;20051;-82
2021/08/11 15:35:32;;;;;;;5.35;4.40;;;;;;;;;;5094937;28;20055;-81
2021/08/11 15:37:59;;;;;;;7.05;4.80;;;;;;;;;;5096541;28;20327;-79
2021/08/11 15:40:30;;;;;;;5.22;4.30;;;;;;;;;;5097269;28;20059;-83
2021/08/11 15:42:57;;;;;;;5.20;4.63;;;;;;;;;;5096989;28;20040;-80
2021/08/11 15:45:24;;;;;;;6.13;4.40;;;;;;;;;;5094931;28;20493;-80
2021/08/11 15:47:50;;;;;;;6.55;4.47;;;;;;;;;;5096927;28;20052;-81
2021/08/11 15:50:17;;;;;;;5.75;5.07;;;;;;;;;;5096389;28;20056;-82
2021/08/11 15:52:46;;;;;;;5.80;4.93;;;;;;;;;;5096606;28;20043;-81
2021/08/11 15:55:13;;;;;;;6.43;5.18;;;;;;;;;;5096192;28;20059;-81
2021/08/11 15:57:40;;;;;;;7.57;5.05;;;;;;;;;;5097089;28;20052;-82
2021/08/11 16:00:08;;;;;;;7.25;4.88;;;;;;;;;;5096579;28;20063;-82
2021/08/11 16:02:36;;;;;;;6.50;5.32;;;;;;;;;;5098328;28;20058;-80
2021/08/11 16:05:06;;;;;;;7.20;5.30;;;;;;;;;;5093741;28;20047;-83
2021/08/11 16:07:33;;;;;;;5.88;5.05;;;;;;;;;;5098064;28;20040;-81
2021/08/11 16:10:01;;;;;;;8.00;4.28;;;;;;;;;;5099289;28;20047;-81
2021/08/11 16:12:28;;;;;;;7.43;5.07;;;;;;;;;;5098438;28;20073;-81
2021/08/11 16:14:55;;;;;;;5.97;4.75;;;;;;;;;;5096701;28;20059;-81
2021/08/11 16:17:22;;;;;;;9.15;6.00;;;;;;;;;;5096631;28;20043;-81
2021/08/11 16:19:49;;;;;;;6.50;5.72;;;;;;;;;;5100017;28;20059;-80
2021/08/11 16:22:16;;;;;;;8.10;5.65;;;;;;;;;;5096432;28;20517;-81
2021/08/11 16:24:42;;;;;;;7.47;5.18;;;;;;;;;;5095740;28;20083;-81
2021/08/11 16:27:11;;;;;;;6.82;5.55;;;;;;;;;;5096425;28;20043;-79
2021/08/11 16:29:38;;;;;;;7.07;5.40;;;;;;;;;;5094732;28;20044;-80
2021/08/11 16:32:05;;;;;;;6.75;5.82;;;;;;;;;;5094768;28;20040;-80
2021/08/11 16:34:32;;;;;;;8.60;7.65;;;;;;;;;;5091897;28;20055;-80
2021/08/11 16:36:59;;;;;;;6.95;5.30;;;;;;;;;;5093309;28;20048;-80
2021/08/11 16:39:26;;;;;;;9.65;4.95;;;;;;;;;;5093611;28;20531;-81
2021/08/11 16:41:53;;;;;;;6.90;6.20;;;;;;;;;;5093945;28;20067;-81